createdAt,value
2023-04-01T00:01:05.943Z,3.25
2023-04-01T00:03:34.230Z,3.95
2023-04-01T00:06:02.262Z,4.40
2023-04-01T00:08:30.062Z,3.83
2023-04-01T00:10:57.936Z,4.72
2023-04-01T00:13:27.191Z,3.55
2023-04-01T00:15:56.086Z,4.78
2023-04-01T00:18:23.937Z,4.35
2023-04-01T00:20:52.642Z,3.28
2023-04-01T00:23:21.071Z,4.70
2023-04-01T00:25:49.108Z,5.32
2023-04-01T00:28:20.417Z,5.97
2023-04-01T00:30:48.076Z,7.72
2023-04-01T00:33:14.965Z,7.00
2023-04-01T00:35:42.900Z,7.20
2023-04-01T00:38:09.566Z,6.53
2023-04-01T00:40:39.298Z,8.05
2023-04-01T00:43:21.432Z,7.43
2023-04-01T00:45:51.073Z,7.88
2023-04-01T00:48:24.293Z,7.78
2023-04-01T00:50:55.381Z,9.40
2023-04-01T00:53:23.601Z,9.35
2023-04-01T00:55:56.925Z,7.60
2023-04-01T00:58:30.368Z,8.93
2023-04-01T01:00:59.538Z,9.23
2023-04-01T01:03:26.363Z,7.25
2023-04-01T01:06:09.495Z,5.25
2023-04-01T01:09:00.267Z,7.57
2023-04-01T01:11:43.561Z,7.13
2023-04-01T01:14:14.991Z,7.17
2023-04-01T01:16:49.362Z,7.65
2023-04-01T01:22:33.103Z,5.82
2023-04-01T01:25:35.842Z,6.93
2023-04-01T01:28:51.972Z,4.57
2023-04-01T01:31:37.798Z,7.47
2023-04-01T01:34:22.524Z,6.50
2023-04-01T01:39:19.483Z,6.57
2023-04-01T01:41:50.207Z,7.35
2023-04-01T01:44:17.643Z,7.80
2023-04-01T01:46:46.224Z,8.45
2023-04-01T01:49:16.000Z,7.90
2023-04-01T01:51:44.067Z,7.28
2023-04-01T01:54:16.722Z,8.10
2023-04-01T01:56:48.515Z,8.45
2023-04-01T01:59:18.740Z,7.70
2023-04-01T02:01:50.857Z,8.55
2023-04-01T02:04:20.229Z,7.45
2023-04-01T02:07:06.850Z,7.50
2023-04-01T02:09:35.242Z,7.28
2023-04-01T02:12:06.722Z,5.65
2023-04-01T02:14:38.970Z,7.10
2023-04-01T02:17:10.407Z,6.90
2023-04-01T02:19:42.873Z,6.57
2023-04-01T02:22:14.567Z,6.38
2023-04-01T02:24:42.401Z,6.20
2023-04-01T02:27:11.277Z,5.28
2023-04-01T02:29:38.185Z,5.70
2023-04-01T02:32:06.851Z,5.25
2023-04-01T02:34:34.414Z,5.57
2023-04-01T02:37:01.825Z,4.63
2023-04-01T02:39:28.733Z,4.70
2023-04-01T02:41:55.562Z,5.25
2023-04-01T02:44:22.553Z,4.60
2023-04-01T02:46:49.205Z,3.58
2023-04-01T02:49:15.937Z,3.80
2023-04-01T02:51:42.579Z,3.92
2023-04-01T02:54:09.144Z,3.92
2023-04-01T02:56:35.842Z,3.58
2023-04-01T02:59:02.863Z,3.88
2023-04-01T03:01:29.616Z,3.35
2023-04-01T03:03:56.326Z,4.28
2023-04-01T03:06:23.089Z,3.38
2023-04-01T03:08:49.687Z,3.88
2023-04-01T03:11:16.361Z,3.40
2023-04-01T03:13:43.010Z,3.40
2023-04-01T03:16:09.713Z,3.45
2023-04-01T03:18:36.346Z,3.35
2023-04-01T03:21:17.507Z,3.10
2023-04-01T03:23:44.543Z,4.85
2023-04-01T03:26:11.366Z,3.30
2023-04-01T03:28:38.174Z,3.60
2023-04-01T03:31:05.046Z,3.58
2023-04-01T03:33:32.430Z,4.03
2023-04-01T03:35:59.123Z,4.60
2023-04-01T03:38:25.770Z,3.80
2023-04-01T03:40:52.350Z,4.03
2023-04-01T03:43:19.022Z,4.25
2023-04-01T03:45:48.115Z,3.88
2023-04-01T03:48:15.998Z,3.97
2023-04-01T03:50:43.137Z,4.22
2023-04-01T03:53:10.445Z,2.80
2023-04-01T03:55:37.779Z,3.35
2023-04-01T03:58:06.060Z,5.05
2023-04-01T04:00:32.907Z,3.92
2023-04-01T04:03:00.193Z,2.67
2023-04-01T04:05:27.704Z,4.28
2023-04-01T04:07:54.574Z,3.78
2023-04-01T04:10:21.484Z,3.20
2023-04-01T04:12:49.752Z,4.00
2023-04-01T04:15:16.728Z,4.65
2023-04-01T04:17:43.426Z,4.50
2023-04-01T04:20:10.395Z,3.72
2023-04-01T04:22:36.998Z,3.63
2023-04-01T04:25:03.864Z,4.50
2023-04-01T04:27:30.963Z,4.55
2023-04-01T04:29:58.198Z,3.35
2023-04-01T04:32:24.852Z,4.07
2023-04-01T04:34:51.523Z,4.57
2023-04-01T04:37:18.195Z,5.05
2023-04-01T04:39:44.839Z,4.30
2023-04-01T04:42:11.455Z,3.88
2023-04-01T04:44:38.057Z,3.00
2023-04-01T04:47:04.779Z,3.50
2023-04-01T04:49:32.162Z,2.50
2023-04-01T04:52:02.006Z,2.70
2023-04-01T04:54:28.696Z,3.30
2023-04-01T04:56:55.781Z,2.85
2023-04-01T04:59:22.484Z,1.88
2023-04-01T05:01:49.450Z,2.67
2023-04-01T05:04:16.075Z,2.33
2023-04-01T05:06:45.326Z,2.72
2023-04-01T05:09:12.059Z,2.92
2023-04-01T05:11:38.991Z,2.10
2023-04-01T05:14:05.779Z,2.60
2023-04-01T05:16:32.595Z,3.33
2023-04-01T05:18:59.338Z,3.17
2023-04-01T05:21:26.349Z,3.20
2023-04-01T05:23:52.991Z,3.40
2023-04-01T05:26:19.649Z,3.28
2023-04-01T05:28:46.259Z,3.97
2023-04-01T05:31:13.004Z,3.75
2023-04-01T05:33:40.274Z,4.05
2023-04-01T05:36:08.970Z,2.88
2023-04-01T05:38:35.701Z,4.32
2023-04-01T05:41:03.681Z,3.42
2023-04-01T05:43:31.312Z,3.40
2023-04-01T05:45:58.818Z,2.78
2023-04-01T05:48:25.613Z,4.57
2023-04-01T05:50:52.255Z,4.82
2023-04-01T05:53:18.943Z,4.90
2023-04-01T05:55:45.646Z,4.95
2023-04-01T05:58:12.222Z,4.70
2023-04-01T06:00:38.935Z,5.38
2023-04-01T06:03:05.857Z,3.63
2023-04-01T06:05:43.406Z,5.25
2023-04-01T06:08:20.407Z,4.47
2023-04-01T06:11:25.582Z,4.78
2023-04-01T06:14:17.955Z,2.40
2023-04-01T06:17:01.867Z,3.65
2023-04-01T06:19:42.943Z,4.80
2023-04-01T06:22:30.929Z,5.30
2023-04-01T06:25:27.066Z,4.60
2023-04-01T06:28:08.867Z,4.93
2023-04-01T06:30:56.434Z,4.13
2023-04-01T06:33:52.140Z,4.57
2023-04-01T06:36:24.845Z,3.58
2023-04-01T06:39:12.506Z,4.38
2023-04-01T06:42:21.041Z,4.00
2023-04-01T06:45:13.293Z,5.05
2023-04-01T06:47:58.893Z,5.07
2023-04-01T06:50:28.169Z,4.22
2023-04-01T06:53:03.679Z,3.78
2023-04-01T06:55:42.315Z,3.78
2023-04-01T06:58:24.602Z,2.17
2023-04-01T07:01:15.049Z,2.65
2023-04-01T07:03:46.543Z,2.83
2023-04-01T07:06:31.492Z,2.78
2023-04-01T07:09:04.133Z,2.75
2023-04-01T07:11:38.443Z,2.35
2023-04-01T07:14:07.772Z,2.30
2023-04-01T07:16:45.316Z,1.73
2023-04-01T07:19:30.638Z,2.65
2023-04-01T07:22:05.653Z,2.65
2023-04-01T07:24:42.471Z,2.92
2023-04-01T07:27:14.280Z,2.53
2023-04-01T07:29:41.739Z,3.00
2023-04-01T07:32:13.957Z,2.33
2023-04-01T07:34:56.258Z,2.00
2023-04-01T07:37:43.351Z,2.17
2023-04-01T07:40:33.447Z,2.00
2023-04-01T07:43:14.173Z,1.98
2023-04-01T07:45:52.805Z,2.70
2023-04-01T07:48:34.886Z,3.10
2023-04-01T07:51:27.496Z,3.30
2023-04-01T07:54:23.935Z,3.72
2023-04-01T07:56:59.916Z,3.63
2023-04-01T08:00:29.227Z,4.35
2023-04-01T08:03:11.206Z,3.85
2023-04-01T08:05:54.450Z,3.85
2023-04-01T08:09:03.280Z,4.18
2023-04-01T08:12:05.100Z,4.28
2023-04-01T08:14:44.254Z,3.97
2023-04-01T08:17:29.850Z,4.05
2023-04-01T08:20:17.789Z,4.32
2023-04-01T08:22:52.612Z,3.47
2023-04-01T08:25:26.099Z,3.65
2023-04-01T08:27:58.479Z,4.30
2023-04-01T08:30:36.665Z,3.88
2023-04-01T08:33:20.352Z,4.43
2023-04-01T08:36:00.287Z,5.05
2023-04-01T08:38:56.230Z,4.35
2023-04-01T08:42:05.190Z,3.72
2023-04-01T08:45:01.592Z,4.65
2023-04-01T08:48:09.460Z,3.95
2023-04-01T08:50:51.850Z,4.57
2023-04-01T08:53:39.420Z,5.28
2023-04-01T08:56:28.798Z,4.80
2023-04-01T08:59:04.637Z,4.97
2023-04-01T09:02:09.025Z,3.95
2023-04-01T09:05:05.629Z,5.13
2023-04-01T09:08:09.969Z,5.28
2023-04-01T09:11:08.424Z,4.45
2023-04-01T09:14:02.554Z,1.98
2023-04-01T09:16:50.184Z,5.87
2023-04-01T09:19:41.974Z,5.20
2023-04-01T09:22:21.362Z,5.68
2023-04-01T09:25:09.933Z,3.58
2023-04-01T09:27:45.513Z,6.43
2023-04-01T09:30:49.803Z,4.80
2023-04-01T09:33:38.101Z,5.57
2023-04-01T09:36:21.035Z,3.42
2023-04-01T09:39:20.456Z,6.38
2023-04-01T09:42:26.381Z,6.10
2023-04-01T09:45:10.687Z,5.15
2023-04-01T09:47:40.356Z,5.18
2023-04-01T09:50:26.098Z,4.53
2023-04-01T09:53:04.773Z,5.50
2023-04-01T09:56:06.716Z,3.78
2023-04-01T09:58:43.699Z,4.07
2023-04-01T10:01:35.913Z,4.03
2023-04-01T10:04:12.986Z,3.80
2023-04-01T10:06:52.608Z,3.80
2023-04-01T10:09:50.086Z,3.80
2023-04-01T10:12:32.737Z,2.63
2023-04-01T10:15:31.487Z,3.15
2023-04-01T10:18:16.850Z,2.97
2023-04-01T10:20:52.648Z,3.08
2023-04-01T10:23:29.543Z,3.10
2023-04-01T10:26:11.293Z,3.08
2023-04-01T10:29:14.377Z,2.65
2023-04-01T10:32:03.191Z,2.67
2023-04-01T10:35:01.928Z,2.17
2023-04-01T10:37:48.472Z,2.97
2023-04-01T10:40:43.496Z,3.20
2023-04-01T10:46:14.208Z,2.58
2023-04-01T10:49:19.662Z,3.00
2023-04-01T10:52:04.353Z,2.97
2023-04-01T10:57:38.110Z,2.35
2023-04-01T11:00:24.739Z,2.92
2023-04-01T11:03:21.433Z,2.25
2023-04-01T11:06:09.698Z,2.60
2023-04-01T11:09:03.898Z,2.60
2023-04-01T11:11:39.554Z,2.42
2023-04-01T11:14:49.548Z,3.10
2023-04-01T11:17:39.718Z,3.17
2023-04-01T11:20:32.751Z,3.40
2023-04-01T11:23:23.502Z,3.42
2023-04-01T11:26:27.134Z,3.47
2023-04-01T11:29:20.032Z,3.75
2023-04-01T11:32:14.960Z,3.60
2023-04-01T11:35:09.586Z,3.08
2023-04-01T11:38:07.961Z,2.92
2023-04-01T11:40:39.598Z,3.33
2023-04-01T11:43:40.927Z,2.88
2023-04-01T11:46:32.575Z,2.20
2023-04-01T11:49:27.347Z,1.77
2023-04-01T11:52:09.998Z,2.40
2023-04-01T11:54:59.202Z,2.42
2023-04-01T11:57:41.984Z,1.67
2023-04-01T12:00:40.198Z,1.88
2023-04-01T12:03:25.479Z,1.65
2023-04-01T12:06:16.942Z,1.50
2023-04-01T12:09:05.526Z,1.40
2023-04-01T12:12:13.599Z,1.40
2023-04-01T12:15:09.292Z,1.52
2023-04-01T12:17:54.495Z,0.68
2023-04-01T12:20:54.408Z,1.30
2023-04-01T12:23:39.188Z,0.90
2023-04-01T12:26:21.054Z,1.38
2023-04-01T12:29:25.231Z,1.90
2023-04-01T12:32:11.651Z,1.85
2023-04-01T12:35:03.248Z,2.03
2023-04-01T12:37:36.075Z,2.38
2023-04-01T12:40:44.152Z,2.85
2023-04-01T12:43:42.422Z,2.30
2023-04-01T12:46:39.117Z,2.42
2023-04-01T12:49:23.666Z,2.58
2023-04-01T12:51:57.637Z,2.47
2023-04-01T12:54:39.237Z,2.80
2023-04-01T12:57:43.791Z,2.88
2023-04-01T13:00:55.450Z,3.00
2023-04-01T13:03:49.817Z,3.17
2023-04-01T13:06:21.172Z,3.30
2023-04-01T13:09:20.855Z,3.15
2023-04-01T13:11:59.252Z,3.63
2023-04-01T13:14:43.885Z,3.47
2023-04-01T13:20:10.606Z,3.25
2023-04-01T13:22:59.530Z,3.15
2023-04-01T13:25:41.038Z,3.42
2023-04-01T13:28:11.507Z,3.63
2023-04-01T13:30:59.218Z,3.25
2023-04-01T13:33:48.806Z,3.83
2023-04-01T13:36:40.655Z,4.00
2023-04-01T13:39:18.653Z,4.28
2023-04-01T13:41:54.157Z,3.80
2023-04-01T13:44:37.917Z,2.97
2023-04-01T13:47:24.892Z,3.60
2023-04-01T13:50:19.657Z,4.18
2023-04-01T13:53:07.715Z,3.72
2023-04-01T13:55:55.052Z,3.78
2023-04-01T13:58:43.273Z,4.47
2023-04-01T14:01:33.522Z,4.68
2023-04-01T14:04:22.031Z,3.17
2023-04-01T14:07:08.082Z,2.65
2023-04-01T14:09:52.614Z,2.30
2023-04-01T14:12:56.909Z,2.60
2023-04-01T14:15:36.513Z,2.13
2023-04-01T14:18:16.444Z,1.90
2023-04-01T14:21:05.400Z,1.70
2023-04-01T14:23:59.521Z,1.80
2023-04-01T14:26:40.881Z,1.30
2023-04-01T14:29:46.143Z,1.05
2023-04-01T14:35:34.918Z,1.80
2023-04-01T14:38:16.058Z,2.20
2023-04-01T14:41:16.413Z,2.58
2023-04-01T14:44:20.731Z,2.78
2023-04-01T14:47:05.703Z,2.45
2023-04-01T14:49:44.339Z,3.40
2023-04-01T14:52:23.047Z,3.92
2023-04-01T14:54:51.860Z,3.10
2023-04-01T14:57:26.093Z,3.85
2023-04-01T15:02:59.881Z,2.47
2023-04-01T15:05:51.569Z,2.72
2023-04-01T15:08:48.515Z,2.90
2023-04-01T15:11:38.940Z,2.70
2023-04-01T15:14:59.681Z,2.40
2023-04-01T15:17:42.865Z,2.60
2023-04-01T15:20:31.311Z,2.60
2023-04-01T15:23:13.229Z,2.58
2023-04-01T15:25:58.371Z,2.70
2023-04-01T15:28:57.249Z,2.83
2023-04-01T15:31:26.695Z,2.55
2023-04-01T15:34:08.386Z,3.17
2023-04-01T15:36:43.986Z,2.80
2023-04-01T15:39:19.894Z,3.05
2023-04-01T15:42:09.237Z,2.95
2023-04-01T15:44:54.397Z,2.83
2023-04-01T15:47:27.039Z,2.85
2023-04-01T15:50:21.449Z,2.70
2023-04-01T15:53:17.187Z,3.03
2023-04-01T15:56:19.111Z,2.70
2023-04-01T15:59:16.502Z,3.30
2023-04-01T16:01:58.563Z,2.90
2023-04-01T16:04:37.434Z,3.17
2023-04-01T16:07:36.790Z,3.08
2023-04-01T16:10:20.452Z,2.95
2023-04-01T16:12:57.236Z,2.65
2023-04-01T16:15:34.645Z,2.50
2023-04-01T16:18:34.248Z,2.05
2023-04-01T16:21:43.933Z,2.00
2023-04-01T16:24:20.902Z,2.10
2023-04-01T16:26:55.768Z,2.10
2023-04-01T16:29:42.299Z,2.00
2023-04-01T16:32:42.668Z,2.53
2023-04-01T16:35:21.947Z,2.78
2023-04-01T16:37:52.397Z,2.60
2023-04-01T16:40:26.553Z,2.38
2023-04-01T16:43:13.411Z,2.47
2023-04-01T16:46:02.104Z,2.58
2023-04-01T16:48:50.384Z,2.72
2023-04-01T16:51:18.901Z,2.50
2023-04-01T16:53:53.471Z,2.47
2023-04-01T16:56:25.370Z,2.70
2023-04-01T16:59:07.479Z,2.33
2023-04-01T17:01:58.098Z,2.50
2023-04-01T17:04:46.116Z,2.53
2023-04-01T17:07:31.419Z,2.47
2023-04-01T17:10:07.276Z,2.50
2023-04-01T17:13:00.400Z,2.60
2023-04-01T17:15:48.628Z,2.50
2023-04-01T17:18:26.277Z,3.05
2023-04-01T17:21:18.928Z,3.08
2023-04-01T17:24:32.652Z,2.90
2023-04-01T17:27:01.897Z,2.80
2023-04-01T17:30:05.806Z,2.80
2023-04-01T17:32:46.480Z,2.30
2023-04-01T17:35:51.393Z,2.80
2023-04-01T17:38:48.767Z,2.53
2023-04-01T17:41:37.623Z,3.17
2023-04-01T17:44:20.154Z,2.95
2023-04-01T17:47:05.842Z,3.20
2023-04-01T17:49:46.291Z,3.13
2023-04-01T17:52:51.242Z,2.88
2023-04-01T17:55:42.198Z,3.25
2023-04-01T17:58:22.272Z,2.80
2023-04-01T18:01:22.457Z,2.58
2023-04-01T18:04:19.902Z,2.90
2023-04-01T18:07:30.951Z,2.72
2023-04-01T18:10:24.817Z,2.80
2023-04-01T18:13:25.732Z,2.92
2023-04-01T18:16:17.411Z,3.03
2023-04-01T18:19:08.277Z,2.70
2023-04-01T18:21:43.959Z,2.95
2023-04-01T18:24:27.617Z,2.95
2023-04-01T18:27:18.513Z,2.65
2023-04-01T18:30:08.611Z,2.63
2023-04-01T18:32:59.858Z,2.95
2023-04-01T18:35:41.649Z,2.95
2023-04-01T18:38:15.027Z,3.45
2023-04-01T18:40:54.198Z,3.08
2023-04-01T18:43:31.446Z,2.88
2023-04-01T18:46:07.056Z,2.72
2023-04-01T18:48:56.139Z,3.05
2023-04-01T18:51:49.721Z,3.47
2023-04-01T18:54:33.374Z,3.00
2023-04-01T18:57:11.917Z,3.03
2023-04-01T18:59:44.182Z,3.10
2023-04-01T19:02:36.885Z,3.10
2023-04-01T19:05:16.114Z,3.30
2023-04-01T19:07:48.847Z,3.10
2023-04-01T19:10:37.091Z,3.00
2023-04-01T19:13:32.747Z,3.22
2023-04-01T19:16:08.530Z,3.47
2023-04-01T19:18:54.374Z,3.15
2023-04-01T19:21:47.714Z,3.30
2023-04-01T19:24:39.726Z,3.05
2023-04-01T19:27:25.711Z,2.97
2023-04-01T19:30:10.929Z,3.20
2023-04-01T19:32:48.841Z,3.58
2023-04-01T19:35:28.765Z,2.85
2023-04-01T19:37:58.744Z,2.97
2023-04-01T19:40:52.720Z,2.90
2023-04-01T19:43:49.582Z,3.05
2023-04-01T19:46:36.631Z,2.65
2023-04-01T19:49:30.950Z,3.05
2023-04-01T19:52:08.201Z,3.10
2023-04-01T19:54:53.055Z,2.58
2023-04-01T19:57:34.310Z,2.90
2023-04-01T20:00:08.053Z,2.58
2023-04-01T20:02:58.373Z,2.58
2023-04-01T20:05:48.172Z,2.88
2023-04-01T20:08:18.234Z,3.10
2023-04-01T20:11:01.021Z,2.70
2023-04-01T20:13:45.705Z,3.00
2023-04-01T20:16:15.957Z,2.40
2023-04-01T20:18:56.749Z,3.00
2023-04-01T20:21:44.354Z,3.17
2023-04-01T20:24:32.561Z,3.10
2023-04-01T20:27:10.888Z,2.92
2023-04-01T20:29:44.356Z,3.20
2023-04-01T20:32:32.970Z,4.00
2023-04-01T20:35:10.199Z,3.58
2023-04-01T20:37:45.593Z,3.55
2023-04-01T20:40:27.441Z,4.25
2023-04-01T20:43:16.237Z,4.22
2023-04-01T20:46:01.485Z,3.92
2023-04-01T20:48:40.544Z,4.50
2023-04-01T20:51:14.721Z,4.05
2023-04-01T20:54:14.538Z,4.38
2023-04-01T20:57:07.509Z,4.10
2023-04-01T21:00:09.047Z,4.57
2023-04-01T21:03:12.972Z,4.40
2023-04-01T21:05:58.285Z,4.78
2023-04-01T21:08:33.847Z,5.15
2023-04-01T21:11:21.650Z,4.82
2023-04-01T21:14:03.397Z,4.15
2023-04-01T21:16:39.924Z,4.75
2023-04-01T21:19:22.344Z,4.68
2023-04-01T21:22:01.085Z,4.53
2023-04-01T21:24:36.558Z,4.20
2023-04-01T21:27:15.379Z,4.43
2023-04-01T21:30:29.406Z,4.10
2023-04-01T21:33:14.888Z,4.03
2023-04-01T21:35:47.689Z,4.20
2023-04-01T21:38:55.686Z,3.53
2023-04-01T21:41:51.028Z,4.00
2023-04-01T21:44:42.213Z,4.07
2023-04-01T21:47:33.481Z,4.60
2023-04-01T21:50:21.816Z,3.53
2023-04-01T21:53:06.149Z,3.78
2023-04-01T21:55:53.753Z,3.80
2023-04-01T21:58:46.874Z,3.33
2023-04-01T22:01:31.871Z,3.80
